Sibley, MO (64088)

07:10 PM CST die 06o February, anno 2016 (GMT -0600)
Elsea Smith Road | | Change Station
CLOSE
Current Station
Personal Weather Stations
Location: Buckner, MO
Elevation: 892 ft
Nearby Weather Stations

Elev 892 ft 39.16 °N, 94.26 °W | Updated 4 seconds ago

Serena
Serena
41.1 °F
Feels Like 41 °F
N
3.0
Ventus Variabilis Ventus from Magis Auster quam Zephyrus
Gusts 4.0 mph

Hodie
High -- | Low -- °F
--% Chance of Precip.
Yesterday
High -- | Low -- °F
Precip. -- in
Pressio 30.17 in
Visibilitas 10.0 milia passuum
Clouds Serena
Frigus Venti 41 °F
Frigus in quo Ros apparet 30 °F
Umor 65%
Rainfall 0.00 in
Snow Depth Not available.
7:19 AM 5:43 PM
Waning Crescent, 3% visible
METAR KGPH 070055Z AUTO 19004KT 10SM CLR 06/M01 A3017 RMK AO2
Pressio 30.17 in
Visibilitas 10.0 milia passuum
Clouds Serena
Frigus Venti 41 °F
Frigus in quo Ros apparet 30 °F
Umor 65%
Rainfall 0.00 in
Snow Depth Not available.
7:19 AM 5:43 PM
Waning Crescent, 3% visible
METAR KGPH 070055Z AUTO 19004KT 10SM CLR 06/M01 A3017 RMK AO2

10-Day Weather Forecast

Almanac

Astronomy

Feb. 06, 2016 Rise Set
Actual Time
Civil Twilight
Nautical Twilight
Astronomical Twilight
Moon
Length Of Visible Light
Length of Day
Tomorrow will be .
, % of the Moon is Illuminated

Today's Extremes

State Highs State Lows

Community

WunderPhotos

Upload Photos

1,891,113 photos uploaded!

WunderBlog® & News

Nearby

Air Quality

  Air Quality AQ Index Pollutant
Not available.

Snow Depth

Station Depth Elevation

Earthquake Activity

City Distance Mag. Time & Date
Minimum magnitude displayed is 2.5.

Coastal Water Temperatures

Locus Calor

Stations

Nearby Weather Stations

Station Location Temp Frigus Venti Frigus in quo Ros apparet Umor Ventus Precip. Elev Renovata Type
                   

Watches & Warnings

There are currently no watches in effect.